sensor_id;sensor_type;location;lat;lon;timestamp;temperature;humidity
24087;DHT22;22893;50.572;7.234;2022-11-20T02:37:58;20.20;63.00
24087;DHT22;22893;50.572;7.234;2022-11-20T02:40:26;20.20;63.60
24087;DHT22;22893;50.572;7.234;2022-11-20T02:42:55;20.20;63.00
24087;DHT22;22893;50.572;7.234;2022-11-20T02:45:24;20.20;62.80
24087;DHT22;22893;50.572;7.234;2022-11-20T02:47:52;20.20;62.90
24087;DHT22;22893;50.572;7.234;2022-11-20T02:50:19;20.20;62.70
24087;DHT22;22893;50.572;7.234;2022-11-20T02:52:47;20.20;62.80
24087;DHT22;22893;50.572;7.234;2022-11-20T02:55:14;20.20;62.60
24087;DHT22;22893;50.572;7.234;2022-11-20T02:57:42;20.20;62.80
24087;DHT22;22893;50.572;7.234;2022-11-20T03:00:10;20.20;62.70
24087;DHT22;22893;50.572;7.234;2022-11-20T03:02:38;20.20;62.70
24087;DHT22;22893;50.572;7.234;2022-11-20T03:05:06;20.20;62.80
24087;DHT22;22893;50.572;7.234;2022-11-20T03:07:34;20.20;62.60
24087;DHT22;22893;50.572;7.234;2022-11-20T03:10:03;20.20;62.70
24087;DHT22;22893;50.572;7.234;2022-11-20T03:12:30;20.20;62.50
24087;DHT22;22893;50.572;7.234;2022-11-20T03:14:58;20.20;62.40
24087;DHT22;22893;50.572;7.234;2022-11-20T03:17:25;20.20;62.30
24087;DHT22;22893;50.572;7.234;2022-11-20T03:19:53;20.20;62.40
24087;DHT22;22893;50.572;7.234;2022-11-20T03:22:21;20.20;62.40
24087;DHT22;22893;50.572;7.234;2022-11-20T03:24:48;20.20;62.40
24087;DHT22;22893;50.572;7.234;2022-11-20T03:27:16;20.20;62.40
24087;DHT22;22893;50.572;7.234;2022-11-20T03:29:43;20.20;62.40
24087;DHT22;22893;50.572;7.234;2022-11-20T03:32:11;20.20;62.50
24087;DHT22;22893;50.572;7.234;2022-11-20T03:34:38;20.20;62.40
24087;DHT22;22893;50.572;7.234;2022-11-20T03:37:06;20.20;62.20
24087;DHT22;22893;50.572;7.234;2022-11-20T03:39:34;20.20;62.20
24087;DHT22;22893;50.572;7.234;2022-11-20T03:42:01;20.20;62.20
24087;DHT22;22893;50.572;7.234;2022-11-20T03:44:29;20.20;62.50
24087;DHT22;22893;50.572;7.234;2022-11-20T03:46:56;20.20;62.50
24087;DHT22;22893;50.572;7.234;2022-11-20T03:49:24;20.20;62.40
24087;DHT22;22893;50.572;7.234;2022-11-20T03:51:51;20.20;62.70
24087;DHT22;22893;50.572;7.234;2022-11-20T03:54:19;20.20;62.20
24087;DHT22;22893;50.572;7.234;2022-11-20T03:56:46;20.20;62.40
24087;DHT22;22893;50.572;7.234;2022-11-20T03:59:14;20.20;62.30
24087;DHT22;22893;50.572;7.234;2022-11-20T04:01:42;20.20;62.40
24087;DHT22;22893;50.572;7.234;2022-11-20T04:04:09;20.20;62.20
24087;DHT22;22893;50.572;7.234;2022-11-20T04:06:37;20.20;62.20
24087;DHT22;22893;50.572;7.234;2022-11-20T04:09:06;20.20;62.10
24087;DHT22;22893;50.572;7.234;2022-11-20T04:11:35;20.20;62.30
24087;DHT22;22893;50.572;7.234;2022-11-20T04:14:05;20.20;62.10
24087;DHT22;22893;50.572;7.234;2022-11-20T04:16:35;20.20;62.40
24087;DHT22;22893;50.572;7.234;2022-11-20T04:19:05;20.20;62.40
24087;DHT22;22893;50.572;7.234;2022-11-20T04:21:33;20.20;62.40
24087;DHT22;22893;50.572;7.234;2022-11-20T04:24:01;20.20;62.40
24087;DHT22;22893;50.572;7.234;2022-11-20T04:26:29;20.20;62.40
24087;DHT22;22893;50.572;7.234;2022-11-20T04:28:58;20.20;62.10
24087;DHT22;22893;50.572;7.234;2022-11-20T04:31:33;20.20;62.40
24087;DHT22;22893;50.572;7.234;2022-11-20T04:34:02;20.10;62.20
24087;DHT22;22893;50.572;7.234;2022-11-20T04:36:31;20.20;62.30
24087;DHT22;22893;50.572;7.234;2022-11-20T04:39:01;20.20;62.40
24087;DHT22;22893;50.572;7.234;2022-11-20T04:41:32;20.20;62.40
24087;DHT22;22893;50.572;7.234;2022-11-20T04:44:02;20.20;62.40
24087;DHT22;22893;50.572;7.234;2022-11-20T04:46:32;20.20;62.40
24087;DHT22;22893;50.572;7.234;2022-11-20T04:49:00;20.20;62.10
24087;DHT22;22893;50.572;7.234;2022-11-20T04:51:27;20.10;62.10
24087;DHT22;22893;50.572;7.234;2022-11-20T04:53:55;20.20;62.10
24087;DHT22;22893;50.572;7.234;2022-11-20T04:56:23;20.10;62.20
24087;DHT22;22893;50.572;7.234;2022-11-20T04:58:51;20.10;63.00
24087;DHT22;22893;50.572;7.234;2022-11-20T05:01:21;20.10;62.30
24087;DHT22;22893;50.572;7.234;2022-11-20T05:03:49;20.10;62.00
24087;DHT22;22893;50.572;7.234;2022-11-20T05:06:19;20.10;62.20
24087;DHT22;22893;50.572;7.234;2022-11-20T05:08:47;20.10;61.90
24087;DHT22;22893;50.572;7.234;2022-11-20T05:11:17;20.20;62.40
24087;DHT22;22893;50.572;7.234;2022-11-20T05:13:45;20.20;62.20
24087;DHT22;22893;50.572;7.234;2022-11-20T05:16:18;20.10;62.10
24087;DHT22;22893;50.572;7.234;2022-11-20T05:18:43;20.10;62.10
24087;DHT22;22893;50.572;7.234;2022-11-20T05:21:12;20.10;62.20
24087;DHT22;22893;50.572;7.234;2022-11-20T05:23:41;20.10;62.00
24087;DHT22;22893;50.572;7.234;2022-11-20T05:26:20;20.10;62.20
24087;DHT22;22893;50.572;7.234;2022-11-20T05:28:49;20.20;62.10
24087;DHT22;22893;50.572;7.234;2022-11-20T05:31:19;20.10;62.30
24087;DHT22;22893;50.572;7.234;2022-11-20T05:33:47;20.10;61.90
24087;DHT22;22893;50.572;7.234;2022-11-20T05:36:15;20.10;62.10
24087;DHT22;22893;50.572;7.234;2022-11-20T05:38:43;20.10;62.10
24087;DHT22;22893;50.572;7.234;2022-11-20T05:41:13;20.10;62.20
24087;DHT22;22893;50.572;7.234;2022-11-20T05:43:42;20.10;62.10
24087;DHT22;22893;50.572;7.234;2022-11-20T05:46:12;20.10;62.10
24087;DHT22;22893;50.572;7.234;2022-11-20T05:48:41;20.10;61.90
24087;DHT22;22893;50.572;7.234;2022-11-20T05:51:11;20.10;61.80
24087;DHT22;22893;50.572;7.234;2022-11-20T05:53:39;20.10;61.80
24087;DHT22;22893;50.572;7.234;2022-11-20T05:56:09;20.10;61.90
24087;DHT22;22893;50.572;7.234;2022-11-20T05:58:38;20.10;61.80
24087;DHT22;22893;50.572;7.234;2022-11-20T06:01:11;20.10;62.00
24087;DHT22;22893;50.572;7.234;2022-11-20T06:03:40;20.10;61.90
24087;DHT22;22893;50.572;7.234;2022-11-20T06:06:10;20.10;61.80
24087;DHT22;22893;50.572;7.234;2022-11-20T06:08:37;20.10;62.00
24087;DHT22;22893;50.572;7.234;2022-11-20T06:11:24;20.10;62.10
24087;DHT22;22893;50.572;7.234;2022-11-20T06:13:52;20.10;61.80
24087;DHT22;22893;50.572;7.234;2022-11-20T06:16:20;20.10;61.80
24087;DHT22;22893;50.572;7.234;2022-11-20T06:18:48;20.10;62.40
24087;DHT22;22893;50.572;7.234;2022-11-20T06:21:18;20.10;61.90
24087;DHT22;22893;50.572;7.234;2022-11-20T06:23:47;20.10;62.00
24087;DHT22;22893;50.572;7.234;2022-11-20T06:26:17;20.10;62.20
24087;DHT22;22893;50.572;7.234;2022-11-20T06:28:45;20.10;62.10
24087;DHT22;22893;50.572;7.234;2022-11-20T06:31:14;20.10;62.20
24087;DHT22;22893;50.572;7.234;2022-11-20T06:33:43;20.10;62.20
24087;DHT22;22893;50.572;7.234;2022-11-20T06:36:12;20.00;60.50
24087;DHT22;22893;50.572;7.234;2022-11-20T06:38:40;19.60;57.30
24087;DHT22;22893;50.572;7.234;2022-11-20T06:41:13;19.30;56.90
24087;DHT22;22893;50.572;7.234;2022-11-20T06:43:41;19.00;58.10
24087;DHT22;22893;50.572;7.234;2022-11-20T06:46:11;19.30;61.00
24087;DHT22;22893;50.572;7.234;2022-11-20T06:48:39;19.50;61.60
24087;DHT22;22893;50.572;7.234;2022-11-20T06:51:08;19.50;62.00
24087;DHT22;22893;50.572;7.234;2022-11-20T06:53:36;19.60;62.10
24087;DHT22;22893;50.572;7.234;2022-11-20T06:56:04;19.70;62.20
24087;DHT22;22893;50.572;7.234;2022-11-20T06:58:32;19.70;62.10
24087;DHT22;22893;50.572;7.234;2022-11-20T07:01:03;19.80;62.20
24087;DHT22;22893;50.572;7.234;2022-11-20T07:03:31;19.80;62.30
24087;DHT22;22893;50.572;7.234;2022-11-20T07:06:00;19.80;62.30
24087;DHT22;22893;50.572;7.234;2022-11-20T07:08:29;19.80;62.30
24087;DHT22;22893;50.572;7.234;2022-11-20T07:11:01;19.90;62.50
24087;DHT22;22893;50.572;7.234;2022-11-20T07:13:30;19.90;62.50
24087;DHT22;22893;50.572;7.234;2022-11-20T07:16:02;19.90;63.60
24087;DHT22;22893;50.572;7.234;2022-11-20T07:18:30;19.90;62.70
24087;DHT22;22893;50.572;7.234;2022-11-20T07:21:02;19.90;62.70
24087;DHT22;22893;50.572;7.234;2022-11-20T07:23:30;19.90;62.70
24087;DHT22;22893;50.572;7.234;2022-11-20T07:25:57;20.00;62.80
24087;DHT22;22893;50.572;7.234;2022-11-20T07:28:25;20.00;62.90
24087;DHT22;22893;50.572;7.234;2022-11-20T07:30:53;20.00;62.80
24087;DHT22;22893;50.572;7.234;2022-11-20T07:33:21;20.00;62.80
24087;DHT22;22893;50.572;7.234;2022-11-20T07:35:49;20.00;62.90
24087;DHT22;22893;50.572;7.234;2022-11-20T07:38:16;20.00;62.70
24087;DHT22;22893;50.572;7.234;2022-11-20T07:40:44;20.00;62.80
24087;DHT22;22893;50.572;7.234;2022-11-20T07:43:11;19.90;62.90
24087;DHT22;22893;50.572;7.234;2022-11-20T07:45:39;19.90;63.10
24087;DHT22;22893;50.572;7.234;2022-11-20T07:48:07;20.00;63.30
24087;DHT22;22893;50.572;7.234;2022-11-20T07:50:34;20.00;63.50
24087;DHT22;22893;50.572;7.234;2022-11-20T07:53:03;20.00;63.50
24087;DHT22;22893;50.572;7.234;2022-11-20T07:55:31;20.10;63.70
24087;DHT22;22893;50.572;7.234;2022-11-20T07:57:59;20.10;64.00
24087;DHT22;22893;50.572;7.234;2022-11-20T08:00:27;20.10;64.00
24087;DHT22;22893;50.572;7.234;2022-11-20T08:02:54;20.10;64.30
24087;DHT22;22893;50.572;7.234;2022-11-20T08:05:22;20.10;64.50
24087;DHT22;22893;50.572;7.234;2022-11-20T08:07:50;20.10;64.80
24087;DHT22;22893;50.572;7.234;2022-11-20T08:10:17;20.10;65.10
24087;DHT22;22893;50.572;7.234;2022-11-20T08:12:46;20.20;65.40
24087;DHT22;22893;50.572;7.234;2022-11-20T08:15:33;20.20;65.40
24087;DHT22;22893;50.572;7.234;2022-11-20T08:18:03;20.20;65.40
24087;DHT22;22893;50.572;7.234;2022-11-20T08:20:31;20.20;65.50
24087;DHT22;22893;50.572;7.234;2022-11-20T08:23:00;20.20;65.40
24087;DHT22;22893;50.572;7.234;2022-11-20T08:25:29;20.20;65.40
24087;DHT22;22893;50.572;7.234;2022-11-20T08:28:00;20.20;65.50
24087;DHT22;22893;50.572;7.234;2022-11-20T08:30:29;20.20;65.70
24087;DHT22;22893;50.572;7.234;2022-11-20T08:33:02;20.20;65.60
24087;DHT22;22893;50.572;7.234;2022-11-20T08:35:34;20.20;65.70
24087;DHT22;22893;50.572;7.234;2022-11-20T08:38:04;20.30;65.70
24087;DHT22;22893;50.572;7.234;2022-11-20T08:40:32;20.30;65.90
24087;DHT22;22893;50.572;7.234;2022-11-20T08:42:59;20.30;65.70
24087;DHT22;22893;50.572;7.234;2022-11-20T08:45:27;20.30;65.70
24087;DHT22;22893;50.572;7.234;2022-11-20T08:47:59;20.30;65.70
24087;DHT22;22893;50.572;7.234;2022-11-20T08:50:25;20.30;65.90
24087;DHT22;22893;50.572;7.234;2022-11-20T08:52:53;20.30;65.90
24087;DHT22;22893;50.572;7.234;2022-11-20T08:55:20;20.30;65.90
24087;DHT22;22893;50.572;7.234;2022-11-20T08:57:48;20.30;66.00
24087;DHT22;22893;50.572;7.234;2022-11-20T09:00:16;20.30;65.70
24087;DHT22;22893;50.572;7.234;2022-11-20T09:02:43;20.30;65.10
24087;DHT22;22893;50.572;7.234;2022-11-20T09:05:11;20.30;64.80
24087;DHT22;22893;50.572;7.234;2022-11-20T09:07:38;20.30;64.30
24087;DHT22;22893;50.572;7.234;2022-11-20T09:10:07;20.30;64.00
24087;DHT22;22893;50.572;7.234;2022-11-20T09:12:36;20.30;63.90
24087;DHT22;22893;50.572;7.234;2022-11-20T09:15:04;20.30;63.90
24087;DHT22;22893;50.572;7.234;2022-11-20T09:17:32;20.30;63.90
24087;DHT22;22893;50.572;7.234;2022-11-20T09:19:59;20.30;63.80
24087;DHT22;22893;50.572;7.234;2022-11-20T09:22:26;20.30;64.20
24087;DHT22;22893;50.572;7.234;2022-11-20T09:24:54;20.30;63.60
24087;DHT22;22893;50.572;7.234;2022-11-20T09:27:22;20.30;63.60
24087;DHT22;22893;50.572;7.234;2022-11-20T09:29:49;20.30;63.60
24087;DHT22;22893;50.572;7.234;2022-11-20T09:32:17;20.30;63.60
24087;DHT22;22893;50.572;7.234;2022-11-20T09:34:44;20.30;63.70
24087;DHT22;22893;50.572;7.234;2022-11-20T09:37:12;20.30;63.50
24087;DHT22;22893;50.572;7.234;2022-11-20T09:39:39;20.30;63.60
24087;DHT22;22893;50.572;7.234;2022-11-20T09:42:17;20.30;63.60
24087;DHT22;22893;50.572;7.234;2022-11-20T09:45:10;20.30;63.60
24087;DHT22;22893;50.572;7.234;2022-11-20T09:47:46;20.30;63.70
24087;DHT22;22893;50.572;7.234;2022-11-20T09:50:19;20.30;63.80
24087;DHT22;22893;50.572;7.234;2022-11-20T09:52:59;20.30;63.70
24087;DHT22;22893;50.572;7.234;2022-11-20T09:55:25;20.30;63.80
24087;DHT22;22893;50.572;7.234;2022-11-20T09:57:52;20.30;63.70
24087;DHT22;22893;50.572;7.234;2022-11-20T10:00:21;20.30;63.80
24087;DHT22;22893;50.572;7.234;2022-11-20T10:05:41;20.30;64.00
24087;DHT22;22893;50.572;7.234;2022-11-20T10:08:20;20.30;64.00
24087;DHT22;22893;50.572;7.234;2022-11-20T10:11:08;20.30;64.00
24087;DHT22;22893;50.572;7.234;2022-11-20T10:16:36;20.40;64.00
24087;DHT22;22893;50.572;7.234;2022-11-20T10:19:07;20.40;65.00
24087;DHT22;22893;50.572;7.234;2022-11-20T10:29:42;20.30;64.10
24087;DHT22;22893;50.572;7.234;2022-11-20T10:32:15;20.40;64.20
24087;DHT22;22893;50.572;7.234;2022-11-20T10:37:34;20.40;64.30
24087;DHT22;22893;50.572;7.234;2022-11-20T10:40:25;20.30;64.20
24087;DHT22;22893;50.572;7.234;2022-11-20T10:42:57;20.40;64.30
24087;DHT22;22893;50.572;7.234;2022-11-20T10:53:47;20.40;64.40
24087;DHT22;22893;50.572;7.234;2022-11-20T10:56:27;20.40;64.30
24087;DHT22;22893;50.572;7.234;2022-11-20T11:01:42;20.40;63.90
24087;DHT22;22893;50.572;7.234;2022-11-20T11:06:51;20.40;64.40
24087;DHT22;22893;50.572;7.234;2022-11-20T11:09:24;20.40;64.50
24087;DHT22;22893;50.572;7.234;2022-11-20T11:11:51;20.40;64.50
24087;DHT22;22893;50.572;7.234;2022-11-20T11:14:18;20.40;64.70
24087;DHT22;22893;50.572;7.234;2022-11-20T11:16:54;20.40;64.60
24087;DHT22;22893;50.572;7.234;2022-11-20T11:19:22;20.40;64.60
24087;DHT22;22893;50.572;7.234;2022-11-20T11:21:53;20.40;64.70
24087;DHT22;22893;50.572;7.234;2022-11-20T11:24:24;20.40;64.80
24087;DHT22;22893;50.572;7.234;2022-11-20T11:27:00;20.40;64.80
24087;DHT22;22893;50.572;7.234;2022-11-20T11:29:26;20.40;64.80
24087;DHT22;22893;50.572;7.234;2022-11-20T11:32:17;20.40;64.80
24087;DHT22;22893;50.572;7.234;2022-11-20T11:34:44;20.40;64.80
24087;DHT22;22893;50.572;7.234;2022-11-20T11:37:15;20.40;64.90
24087;DHT22;22893;50.572;7.234;2022-11-20T11:39:44;20.40;64.90
24087;DHT22;22893;50.572;7.234;2022-11-20T11:42:17;20.50;65.00
24087;DHT22;22893;50.572;7.234;2022-11-20T11:44:47;20.40;65.00
24087;DHT22;22893;50.572;7.234;2022-11-20T11:47:44;20.50;65.10
24087;DHT22;22893;50.572;7.234;2022-11-20T11:58:15;20.50;65.20
24087;DHT22;22893;50.572;7.234;2022-11-20T12:00:52;20.50;65.20
24087;DHT22;22893;50.572;7.234;2022-11-20T12:03:35;20.50;65.20
24087;DHT22;22893;50.572;7.234;2022-11-20T12:06:01;20.50;65.20
24087;DHT22;22893;50.572;7.234;2022-11-20T12:14:33;20.40;64.50
24087;DHT22;22893;50.572;7.234;2022-11-20T12:17:02;20.40;64.60
24087;DHT22;22893;50.572;7.234;2022-11-20T12:19:35;20.40;64.90
24087;DHT22;22893;50.572;7.234;2022-11-20T12:22:38;20.40;64.80
24087;DHT22;22893;50.572;7.234;2022-11-20T12:25:15;20.40;64.80
24087;DHT22;22893;50.572;7.234;2022-11-20T12:28:15;20.40;64.70
24087;DHT22;22893;50.572;7.234;2022-11-20T12:31:03;20.40;64.50
24087;DHT22;22893;50.572;7.234;2022-11-20T12:33:17;20.40;64.40
24087;DHT22;22893;50.572;7.234;2022-11-20T12:41:58;20.50;64.60
24087;DHT22;22893;50.572;7.234;2022-11-20T12:45:02;20.50;64.40
24087;DHT22;22893;50.572;7.234;2022-11-20T12:51:06;20.50;64.70
24087;DHT22;22893;50.572;7.234;2022-11-20T13:02:01;20.50;64.70
24087;DHT22;22893;50.572;7.234;2022-11-20T13:04:45;20.50;64.70
24087;DHT22;22893;50.572;7.234;2022-11-20T13:07:12;20.50;64.80
24087;DHT22;22893;50.572;7.234;2022-11-20T13:09:43;20.50;64.70
24087;DHT22;22893;50.572;7.234;2022-11-20T13:12:25;20.50;64.80
24087;DHT22;22893;50.572;7.234;2022-11-20T13:15:00;20.50;64.70
24087;DHT22;22893;50.572;7.234;2022-11-20T13:17:59;20.50;64.70
24087;DHT22;22893;50.572;7.234;2022-11-20T13:20:28;20.50;64.80
24087;DHT22;22893;50.572;7.234;2022-11-20T13:22:57;20.50;64.90
24087;DHT22;22893;50.572;7.234;2022-11-20T13:27:57;20.50;64.80
24087;DHT22;22893;50.572;7.234;2022-11-20T13:30:27;20.50;64.90
24087;DHT22;22893;50.572;7.234;2022-11-20T13:33:01;20.50;65.00
24087;DHT22;22893;50.572;7.234;2022-11-20T13:35:30;20.60;65.00
24087;DHT22;22893;50.572;7.234;2022-11-20T13:38:09;20.50;64.90
24087;DHT22;22893;50.572;7.234;2022-11-20T13:40:49;20.60;65.00
24087;DHT22;22893;50.572;7.234;2022-11-20T13:46:06;20.50;65.20
24087;DHT22;22893;50.572;7.234;2022-11-20T13:48:39;20.50;65.20
24087;DHT22;22893;50.572;7.234;2022-11-20T13:56:59;20.50;65.20
24087;DHT22;22893;50.572;7.234;2022-11-20T14:02:11;20.50;65.20
24087;DHT22;22893;50.572;7.234;2022-11-20T14:04:45;20.50;65.30
24087;DHT22;22893;50.572;7.234;2022-11-20T14:07:15;20.50;65.20
24087;DHT22;22893;50.572;7.234;2022-11-20T14:09:51;20.60;65.40
24087;DHT22;22893;50.572;7.234;2022-11-20T14:12:22;20.60;65.40
24087;DHT22;22893;50.572;7.234;2022-11-20T14:14:52;20.50;65.40
24087;DHT22;22893;50.572;7.234;2022-11-20T14:20:04;20.60;65.50
24087;DHT22;22893;50.572;7.234;2022-11-20T14:22:28;20.50;65.40
24087;DHT22;22893;50.572;7.234;2022-11-20T14:25:17;20.60;65.50
24087;DHT22;22893;50.572;7.234;2022-11-20T14:27:41;20.60;65.50
24087;DHT22;22893;50.572;7.234;2022-11-20T14:30:14;20.60;65.50
24087;DHT22;22893;50.572;7.234;2022-11-20T14:32:43;20.60;65.50
24087;DHT22;22893;50.572;7.234;2022-11-20T14:35:21;20.60;65.50
24087;DHT22;22893;50.572;7.234;2022-11-20T14:37:48;20.50;65.50
24087;DHT22;22893;50.572;7.234;2022-11-20T14:42:59;20.60;65.50
24087;DHT22;22893;50.572;7.234;2022-11-20T14:45:27;20.60;65.50
24087;DHT22;22893;50.572;7.234;2022-11-20T14:47:57;20.60;65.50
24087;DHT22;22893;50.572;7.234;2022-11-20T14:50:27;20.60;65.50
24087;DHT22;22893;50.572;7.234;2022-11-20T14:53:00;20.60;65.60
24087;DHT22;22893;50.572;7.234;2022-11-20T14:55:36;20.50;65.60
24087;DHT22;22893;50.572;7.234;2022-11-20T14:58:19;20.60;65.70
24087;DHT22;22893;50.572;7.234;2022-11-20T15:00:35;20.60;65.70
24087;DHT22;22893;50.572;7.234;2022-11-20T15:03:13;20.60;65.70
24087;DHT22;22893;50.572;7.234;2022-11-20T15:05:51;20.60;65.70
24087;DHT22;22893;50.572;7.234;2022-11-20T15:08:19;20.60;65.70
24087;DHT22;22893;50.572;7.234;2022-11-20T15:10:48;20.60;65.70
24087;DHT22;22893;50.572;7.234;2022-11-20T15:13:21;20.60;65.80
24087;DHT22;22893;50.572;7.234;2022-11-20T15:15:54;20.60;65.80
24087;DHT22;22893;50.572;7.234;2022-11-20T15:18:23;20.60;65.80
24087;DHT22;22893;50.572;7.234;2022-11-20T15:20:51;20.60;65.80
24087;DHT22;22893;50.572;7.234;2022-11-20T15:23:19;20.60;65.60
24087;DHT22;22893;50.572;7.234;2022-11-20T15:25:48;20.60;65.50
24087;DHT22;22893;50.572;7.234;2022-11-20T15:28:21;20.60;65.20
24087;DHT22;22893;50.572;7.234;2022-11-20T15:30:49;20.60;65.00
24087;DHT22;22893;50.572;7.234;2022-11-20T15:33:18;20.60;65.00
24087;DHT22;22893;50.572;7.234;2022-11-20T15:35:45;20.60;65.00
24087;DHT22;22893;50.572;7.234;2022-11-20T15:38:13;20.60;65.00
24087;DHT22;22893;50.572;7.234;2022-11-20T15:40:41;20.60;65.00
24087;DHT22;22893;50.572;7.234;2022-11-20T15:43:08;20.60;65.10
24087;DHT22;22893;50.572;7.234;2022-11-20T15:45:54;20.60;65.20
24087;DHT22;22893;50.572;7.234;2022-11-20T15:48:20;20.60;66.20
24087;DHT22;22893;50.572;7.234;2022-11-20T15:53:22;20.60;65.50
24087;DHT22;22893;50.572;7.234;2022-11-20T15:55:49;20.60;65.60
24087;DHT22;22893;50.572;7.234;2022-11-20T15:58:17;20.60;65.70
24087;DHT22;22893;50.572;7.234;2022-11-20T16:00:45;20.60;65.80
24087;DHT22;22893;50.572;7.234;2022-11-20T16:03:14;20.70;66.00
24087;DHT22;22893;50.572;7.234;2022-11-20T16:05:47;20.60;66.00
24087;DHT22;22893;50.572;7.234;2022-11-20T16:08:12;20.60;66.00
24087;DHT22;22893;50.572;7.234;2022-11-20T16:10:41;20.60;66.00
24087;DHT22;22893;50.572;7.234;2022-11-20T16:13:14;20.70;66.10
24087;DHT22;22893;50.572;7.234;2022-11-20T16:16:10;20.70;66.10
24087;DHT22;22893;50.572;7.234;2022-11-20T16:18:36;20.60;66.20
24087;DHT22;22893;50.572;7.234;2022-11-20T16:21:10;20.70;66.30
24087;DHT22;22893;50.572;7.234;2022-11-20T16:23:38;20.70;66.30
24087;DHT22;22893;50.572;7.234;2022-11-20T16:26:15;20.60;66.40
24087;DHT22;22893;50.572;7.234;2022-11-20T16:28:44;20.70;66.30
24087;DHT22;22893;50.572;7.234;2022-11-20T16:31:13;20.70;66.40
24087;DHT22;22893;50.572;7.234;2022-11-20T16:33:42;20.70;66.30
24087;DHT22;22893;50.572;7.234;2022-11-20T16:36:14;20.70;66.30
24087;DHT22;22893;50.572;7.234;2022-11-20T16:38:42;20.70;66.30
24087;DHT22;22893;50.572;7.234;2022-11-20T16:41:10;20.70;66.40
24087;DHT22;22893;50.572;7.234;2022-11-20T16:43:45;20.70;66.30
24087;DHT22;22893;50.572;7.234;2022-11-20T16:46:19;20.70;66.30
24087;DHT22;22893;50.572;7.234;2022-11-20T16:48:43;20.70;66.30
24087;DHT22;22893;50.572;7.234;2022-11-20T16:51:12;20.70;66.10
24087;DHT22;22893;50.572;7.234;2022-11-20T16:53:39;20.70;66.00
24087;DHT22;22893;50.572;7.234;2022-11-20T16:56:16;20.70;66.00
24087;DHT22;22893;50.572;7.234;2022-11-20T16:58:47;20.70;66.20
24087;DHT22;22893;50.572;7.234;2022-11-20T17:01:17;20.70;66.40
24087;DHT22;22893;50.572;7.234;2022-11-20T17:04:05;20.70;66.30
24087;DHT22;22893;50.572;7.234;2022-11-20T17:06:31;20.70;66.30
24087;DHT22;22893;50.572;7.234;2022-11-20T17:08:59;20.70;66.50
24087;DHT22;22893;50.572;7.234;2022-11-20T17:11:27;20.70;66.70
24087;DHT22;22893;50.572;7.234;2022-11-20T17:13:56;20.70;66.90
24087;DHT22;22893;50.572;7.234;2022-11-20T17:16:26;20.80;67.30
24087;DHT22;22893;50.572;7.234;2022-11-20T17:18:55;20.70;67.60
24087;DHT22;22893;50.572;7.234;2022-11-20T17:21:23;20.70;67.50
24087;DHT22;22893;50.572;7.234;2022-11-20T17:23:50;20.80;67.60
24087;DHT22;22893;50.572;7.234;2022-11-20T17:26:20;20.80;67.60
24087;DHT22;22893;50.572;7.234;2022-11-20T17:29:02;20.80;67.70
24087;DHT22;22893;50.572;7.234;2022-11-20T17:31:26;20.80;67.80
24087;DHT22;22893;50.572;7.234;2022-11-20T17:33:54;20.80;67.80
24087;DHT22;22893;50.572;7.234;2022-11-20T17:36:22;20.80;67.90
24087;DHT22;22893;50.572;7.234;2022-11-20T17:38:49;20.80;67.80
24087;DHT22;22893;50.572;7.234;2022-11-20T17:41:19;20.80;67.80
24087;DHT22;22893;50.572;7.234;2022-11-20T17:43:48;20.80;67.70
24087;DHT22;22893;50.572;7.234;2022-11-20T17:46:18;20.80;67.70
24087;DHT22;22893;50.572;7.234;2022-11-20T17:48:47;20.80;67.80
24087;DHT22;22893;50.572;7.234;2022-11-20T17:51:17;20.80;67.90
24087;DHT22;22893;50.572;7.234;2022-11-20T17:53:47;20.80;67.80
24087;DHT22;22893;50.572;7.234;2022-11-20T17:56:15;20.80;67.70
24087;DHT22;22893;50.572;7.234;2022-11-20T17:59:10;20.80;67.70
24087;DHT22;22893;50.572;7.234;2022-11-20T18:01:34;20.80;67.80
24087;DHT22;22893;50.572;7.234;2022-11-20T18:04:02;20.80;67.70
24087;DHT22;22893;50.572;7.234;2022-11-20T18:06:32;20.80;67.80
24087;DHT22;22893;50.572;7.234;2022-11-20T18:09:01;20.80;67.80
24087;DHT22;22893;50.572;7.234;2022-11-20T18:11:32;20.80;68.00
24087;DHT22;22893;50.572;7.234;2022-11-20T18:14:01;20.80;67.70
24087;DHT22;22893;50.572;7.234;2022-11-20T18:16:55;20.80;67.70
24087;DHT22;22893;50.572;7.234;2022-11-20T18:19:21;20.80;67.80
24087;DHT22;22893;50.572;7.234;2022-11-20T18:21:49;20.80;68.10
24087;DHT22;22893;50.572;7.234;2022-11-20T18:24:17;20.80;68.10
24087;DHT22;22893;50.572;7.234;2022-11-20T18:26:44;20.90;68.10
24087;DHT22;22893;50.572;7.234;2022-11-20T18:29:12;20.80;68.30
24087;DHT22;22893;50.572;7.234;2022-11-20T18:31:41;20.80;68.20
24087;DHT22;22893;50.572;7.234;2022-11-20T18:34:08;20.80;68.30
24087;DHT22;22893;50.572;7.234;2022-11-20T18:36:38;20.90;68.40
24087;DHT22;22893;50.572;7.234;2022-11-20T18:39:06;20.90;68.50
24087;DHT22;22893;50.572;7.234;2022-11-20T18:41:33;20.90;68.50
24087;DHT22;22893;50.572;7.234;2022-11-20T18:44:21;20.90;68.60
24087;DHT22;22893;50.572;7.234;2022-11-20T18:47:09;20.90;68.90
24087;DHT22;22893;50.572;7.234;2022-11-20T18:49:38;20.90;68.90
24087;DHT22;22893;50.572;7.234;2022-11-20T18:52:06;20.90;68.80
24087;DHT22;22893;50.572;7.234;2022-11-20T18:54:35;20.90;68.70
24087;DHT22;22893;50.572;7.234;2022-11-20T18:57:03;20.90;68.80
24087;DHT22;22893;50.572;7.234;2022-11-20T18:59:31;20.90;68.90
24087;DHT22;22893;50.572;7.234;2022-11-20T19:01:59;20.90;68.90
24087;DHT22;22893;50.572;7.234;2022-11-20T19:04:26;20.90;69.00
24087;DHT22;22893;50.572;7.234;2022-11-20T19:06:55;20.90;68.90
24087;DHT22;22893;50.572;7.234;2022-11-20T19:09:23;20.90;68.80
24087;DHT22;22893;50.572;7.234;2022-11-20T19:11:51;20.90;68.60
24087;DHT22;22893;50.572;7.234;2022-11-20T19:14:18;20.90;68.60
24087;DHT22;22893;50.572;7.234;2022-11-20T19:16:46;20.90;68.70
24087;DHT22;22893;50.572;7.234;2022-11-20T19:19:14;20.90;68.80
24087;DHT22;22893;50.572;7.234;2022-11-20T19:21:42;20.90;68.90
24087;DHT22;22893;50.572;7.234;2022-11-20T19:24:09;20.90;68.80
24087;DHT22;22893;50.572;7.234;2022-11-20T19:26:37;20.90;68.70
24087;DHT22;22893;50.572;7.234;2022-11-20T19:29:05;20.90;68.60
24087;DHT22;22893;50.572;7.234;2022-11-20T19:31:33;20.90;68.70
24087;DHT22;22893;50.572;7.234;2022-11-20T19:34:02;20.90;68.80
24087;DHT22;22893;50.572;7.234;2022-11-20T22:25:47;20.80;66.10
24087;DHT22;22893;50.572;7.234;2022-11-20T22:28:15;20.70;66.10
24087;DHT22;22893;50.572;7.234;2022-11-20T22:30:42;20.70;67.10
24087;DHT22;22893;50.572;7.234;2022-11-20T22:33:10;20.80;67.20
24087;DHT22;22893;50.572;7.234;2022-11-20T22:35:37;20.80;67.20
24087;DHT22;22893;50.572;7.234;2022-11-20T22:38:05;20.80;67.20
24087;DHT22;22893;50.572;7.234;2022-11-20T22:40:33;20.90;67.20